Time;durP1;ratioP1;P1;durP2;ratioP2;P2;SDS_P1;SDS_P2;PMS_P1;PMS_P2;Temp;Humidity;BMP_temperature;BMP_pressure;BME280_temperature;BME280_humidity;BME280_pressure;Samples;Min_cycle;Max_cycle;Signal;HPM_P1;HPM_P2
2021/06/24 00:02:22;;;;;;;1999.90;999.90;;;;;;;21.18;98.01;95953.06;5049212;28;20197;-72
2021/06/24 00:04:49;;;;;;;1999.90;999.90;;;;;;;21.02;98.72;95949.72;5033655;28;20209;-71
2021/06/24 00:07:16;;;;;;;1999.90;999.90;;;;;;;20.98;99.58;95956.78;5028973;28;20229;-73
2021/06/24 00:09:43;;;;;;;1999.90;999.90;;;;;;;20.99;99.61;95947.75;5029027;28;20202;-73
2021/06/24 00:12:12;;;;;;;1999.90;999.90;;;;;;;20.97;100.00;95952.63;5029193;28;20622;-72
2021/06/24 00:14:39;;;;;;;1999.90;999.90;;;;;;;20.93;100.00;95954.44;5029392;28;20201;-72
2021/06/24 00:17:06;;;;;;;1999.90;999.90;;;;;;;20.93;100.00;95959.72;5028959;28;20704;-72
2021/06/24 00:19:33;;;;;;;1999.90;999.90;;;;;;;20.91;100.00;95959.31;5029329;28;20260;-72
2021/06/24 00:22:00;;;;;;;1999.90;999.90;;;;;;;20.94;100.00;95958.59;5028940;28;20209;-72
2021/06/24 00:24:27;;;;;;;1999.90;999.90;;;;;;;20.93;100.00;95965.00;5029008;28;20247;-72
2021/06/24 00:26:54;;;;;;;1999.90;999.90;;;;;;;20.92;100.00;95961.59;5029062;28;20225;-72
2021/06/24 00:29:23;;;;;;;1999.90;999.90;;;;;;;20.87;100.00;95967.16;5029265;28;20206;-72
2021/06/24 00:31:50;;;;;;;1999.90;999.90;;;;;;;20.93;100.00;95957.84;5028737;28;20205;-69
2021/06/24 00:34:17;;;;;;;1999.90;999.90;;;;;;;20.95;99.19;95968.06;5029413;28;20639;-69
2021/06/24 00:36:44;;;;;;;1999.90;999.90;;;;;;;20.97;97.46;95971.13;5029279;28;20614;-69
2021/06/24 00:39:11;;;;;;;1999.90;999.90;;;;;;;20.91;97.49;95973.28;5028985;28;20194;-69
2021/06/24 00:41:38;;;;;;;1999.90;999.90;;;;;;;20.89;97.16;95977.38;5028897;28;20658;-69
2021/06/24 00:44:06;;;;;;;1999.90;999.90;;;;;;;20.81;97.04;95978.34;5029134;28;20197;-68
2021/06/24 00:46:34;;;;;;;1999.90;999.90;;;;;;;20.77;95.71;95978.25;5028608;28;20229;-69
2021/06/24 00:49:03;;;;;;;1999.90;999.90;;;;;;;20.74;94.70;95978.97;5028580;28;20206;-69
2021/06/24 00:51:31;;;;;;;1999.90;999.90;;;;;;;20.67;94.47;95983.34;5028964;28;20225;-69
2021/06/24 00:53:58;;;;;;;1999.90;999.90;;;;;;;20.59;94.60;95977.91;5028732;28;20234;-69
2021/06/24 00:56:28;;;;;;;1999.90;999.90;;;;;;;20.59;94.60;95982.41;5028822;28;20303;-69
2021/06/24 00:58:55;;;;;;;1999.90;999.90;;;;;;;20.63;94.26;95983.25;5028637;28;20670;-69
2021/06/24 01:01:22;;;;;;;1999.90;999.90;;;;;;;20.68;93.66;95984.84;5028466;28;20666;-69
2021/06/24 01:03:50;;;;;;;1999.90;999.90;;;;;;;20.71;93.65;95978.91;5034731;28;20201;-69
2021/06/24 01:06:18;;;;;;;1999.90;999.90;;;;;;;20.74;93.49;95980.84;5048643;28;20275;-69
2021/06/24 01:08:45;;;;;;;1999.90;999.90;;;;;;;20.73;93.67;95980.06;5048771;28;20235;-69
2021/06/24 01:11:12;;;;;;;1999.90;999.90;;;;;;;20.65;94.47;95986.31;5048377;28;20212;-69
2021/06/24 01:13:39;;;;;;;1999.90;999.90;;;;;;;20.56;95.09;95983.13;5048460;28;20198;-69
2021/06/24 01:16:06;;;;;;;1999.90;999.90;;;;;;;20.43;96.27;95982.44;5051647;28;20590;-69
2021/06/24 01:18:34;;;;;;;1999.90;999.90;;;;;;;20.38;96.54;95988.00;5052279;28;20689;-69
2021/06/24 01:21:04;;;;;;;1999.90;999.90;;;;;;;20.38;96.70;95995.16;5051852;28;20204;-69
2021/06/24 01:23:38;;;;;;;1999.90;999.90;;;;;;;20.42;96.54;95990.72;5052121;28;20189;-68
2021/06/24 01:26:06;;;;;;;1999.90;999.90;;;;;;;20.46;96.03;95992.34;5051778;28;20910;-69
2021/06/24 01:28:33;;;;;;;1999.90;999.90;;;;;;;20.42;96.11;95993.38;5051833;28;20204;-69
2021/06/24 01:31:00;;;;;;;1999.90;999.90;;;;;;;20.43;96.05;95990.38;5051952;28;20209;-68
2021/06/24 01:33:27;;;;;;;1999.90;999.90;;;;;;;20.41;96.08;96000.53;5051698;28;20212;-68
2021/06/24 01:35:58;;;;;;;1999.90;999.90;;;;;;;20.44;96.15;96002.47;5051958;28;20197;-68
2021/06/24 01:38:26;;;;;;;1999.90;999.90;;;;;;;20.47;95.59;95991.22;5051662;28;20242;-71
2021/06/24 01:40:55;;;;;;;1999.90;999.90;;;;;;;20.50;95.03;95998.47;5051712;28;20197;-69
2021/06/24 01:43:22;;;;;;;1999.90;999.90;;;;;;;20.44;94.85;95997.19;5049146;28;20241;-69
2021/06/24 01:45:53;;;;;;;1999.90;999.90;;;;;;;20.40;95.17;95991.06;5051028;28;20665;-70
2021/06/24 01:48:21;;;;;;;1999.90;999.90;;;;;;;20.36;95.71;95986.81;5049948;28;20262;-70
2021/06/24 01:50:49;;;;;;;1999.90;999.90;;;;;;;20.34;95.79;95981.88;5051591;28;20205;-70
2021/06/24 01:53:16;;;;;;;1999.90;999.90;;;;;;;20.31;96.39;95989.72;5051587;28;20208;-70
2021/06/24 01:55:43;;;;;;;1999.90;999.90;;;;;;;20.30;96.52;95985.50;5051241;28;20562;-70
2021/06/24 01:58:19;;;;;;;1999.90;999.90;;;;;;;20.26;96.84;95982.81;5051191;28;20239;-71
2021/06/24 02:00:46;;;;;;;1999.90;999.90;;;;;;;20.23;97.28;95975.56;5048552;28;20199;-69
2021/06/24 02:03:14;;;;;;;1999.90;999.90;;;;;;;20.10;96.97;95976.75;5048235;28;20901;-69
2021/06/24 02:05:41;;;;;;;1999.90;999.90;;;;;;;20.08;97.47;95981.59;5048527;28;20232;-68
2021/06/24 02:08:13;;;;;;;1999.90;999.90;;;;;;;20.07;97.43;95972.19;5050583;28;20299;-70
2021/06/24 02:10:40;;;;;;;1999.90;999.90;;;;;;;20.07;96.93;95972.94;5049723;28;20272;-69
2021/06/24 02:13:07;;;;;;;1999.90;999.90;;;;;;;20.13;96.92;95960.25;5050962;28;20201;-70
2021/06/24 02:15:36;;;;;;;1999.90;999.90;;;;;;;20.02;97.25;95961.88;5050688;28;20689;-70
2021/06/24 02:18:03;;;;;;;1999.90;999.90;;;;;;;20.00;95.97;95966.72;5050705;28;20204;-71
2021/06/24 02:20:30;;;;;;;1999.90;999.90;;;;;;;19.76;96.56;95968.44;5050591;28;20258;-70
2021/06/24 02:22:57;;;;;;;1999.90;999.90;;;;;;;19.58;98.65;95961.94;5050619;28;20644;-70
2021/06/24 02:25:24;;;;;;;1999.90;999.90;;;;;;;19.50;100.00;95962.13;5050429;28;20205;-70
2021/06/24 02:27:51;;;;;;;1999.90;999.90;;;;;;;19.48;100.00;95959.81;5049657;28;20225;-71
2021/06/24 02:30:19;;;;;;;1999.90;999.90;;;;;;;19.50;100.00;95970.78;5050655;28;20197;-70
2021/06/24 02:32:49;;;;;;;1999.90;999.90;;;;;;;19.55;100.00;95967.91;5050038;28;20197;-70
2021/06/24 02:35:17;;;;;;;1999.90;999.90;;;;;;;19.55;100.00;95967.91;5049275;28;20680;-70
2021/06/24 02:37:46;;;;;;;1999.90;999.90;;;;;;;19.57;100.00;95960.44;5050536;28;20260;-68
2021/06/24 02:40:16;;;;;;;1999.90;999.90;;;;;;;19.57;100.00;95954.38;5050318;28;20194;-72
2021/06/24 02:42:44;;;;;;;1999.90;999.90;;;;;;;19.71;100.00;95952.09;5049640;28;20240;-72
2021/06/24 02:45:12;;;;;;;1999.90;999.90;;;;;;;19.71;99.81;95967.91;5050277;28;20209;-68
2021/06/24 02:47:40;;;;;;;1999.90;999.90;;;;;;;19.73;99.87;95968.34;5050298;28;20282;-70
2021/06/24 02:50:11;;;;;;;1999.90;999.90;;;;;;;19.73;99.75;95966.47;5049410;28;20221;-73
2021/06/24 02:52:38;;;;;;;1999.90;999.90;;;;;;;19.74;99.83;95975.91;5049786;28;20194;-72
2021/06/24 02:55:07;;;;;;;1999.90;999.90;;;;;;;19.75;99.70;95971.41;5050067;28;20343;-71
2021/06/24 02:57:34;;;;;;;1999.90;999.90;;;;;;;19.77;99.30;95969.22;5049666;28;20204;-72
2021/06/24 03:41:37;;;;;;;1999.90;999.90;;;;;;;20.35;100.00;95977.34;5069455;28;20570;-70
2021/06/24 03:44:05;;;;;;;1999.90;999.90;;;;;;;20.36;100.00;95984.94;5066176;28;20228;-69
2021/06/24 03:46:32;;;;;;;1999.90;999.90;;;;;;;20.40;99.67;95982.38;5064497;28;20258;-70
2021/06/24 03:48:59;;;;;;;1999.90;999.90;;;;;;;20.40;99.56;95985.78;5070144;28;20280;-69
2021/06/24 03:51:27;;;;;;;1999.90;999.90;;;;;;;20.44;99.44;95989.25;5070842;28;20205;-66
2021/06/24 03:53:54;;;;;;;1999.90;999.90;;;;;;;20.52;98.71;95987.56;5050213;28;20236;-67
2021/06/24 03:56:21;;;;;;;1999.90;999.90;;;;;;;20.60;96.74;95990.00;5049517;28;20618;-66
2021/06/24 03:58:50;;;;;;;1999.90;999.90;;;;;;;20.76;94.70;95989.97;5060243;28;20945;-65
2021/06/24 04:01:17;;;;;;;1999.90;999.90;;;;;;;20.63;94.88;95984.03;5054377;28;20197;-66
2021/06/24 04:03:45;;;;;;;1999.90;999.90;;;;;;;20.56;95.63;95989.16;5041824;28;20201;-66
2021/06/24 04:06:12;;;;;;;1999.90;999.90;;;;;;;20.59;95.79;95992.97;5055923;28;20204;-67
2021/06/24 04:08:39;;;;;;;1999.90;999.90;;;;;;;20.67;95.43;95992.03;5062488;28;20200;-66
2021/06/24 04:11:06;;;;;;;1999.90;999.90;;;;;;;20.77;94.71;95980.16;5056547;28;20197;-66
2021/06/24 04:13:33;;;;;;;1999.90;999.90;;;;;;;20.85;94.49;95982.59;5042628;28;20213;-66
2021/06/24 04:16:02;;;;;;;1999.90;999.90;;;;;;;20.88;94.42;95989.06;5031315;28;20885;-66
2021/06/24 04:18:29;;;;;;;1999.90;999.90;;;;;;;21.07;93.93;95996.97;5030796;28;20985;-66
2021/06/24 04:20:56;;;;;;;1999.90;999.90;;;;;;;21.13;93.55;95998.25;5030785;28;20229;-66
2021/06/24 04:23:23;;;;;;;1999.90;999.90;;;;;;;21.20;93.65;95995.78;5030576;28;20674;-66
2021/06/24 04:25:50;;;;;;;1999.90;999.90;;;;;;;21.38;92.70;95998.75;5031001;28;20202;-66
2021/06/24 04:28:17;;;;;;;1999.90;999.90;;;;;;;21.49;91.41;96005.00;5031244;28;20252;-66
2021/06/24 04:30:44;;;;;;;1999.90;999.90;;;;;;;21.64;90.97;96003.38;5031326;28;20665;-66
2021/06/24 04:33:13;;;;;;;1999.90;999.90;;;;;;;21.99;89.60;96001.38;5031451;28;20202;-66
2021/06/24 04:35:40;;;;;;;1999.90;999.90;;;;;;;22.40;88.87;96004.25;5031544;28;20209;-65
2021/06/24 04:38:07;;;;;;;1999.90;999.90;;;;;;;22.88;87.76;96000.78;5031224;28;20201;-66
2021/06/24 04:40:34;;;;;;;1999.90;999.90;;;;;;;23.36;85.30;95995.69;5031045;28;20237;-66
2021/06/24 04:43:01;;;;;;;1999.90;999.90;;;;;;;23.69;81.26;96000.97;5031506;28;20202;-65
2021/06/24 04:45:28;;;;;;;1999.90;999.90;;;;;;;24.11;79.34;96002.50;5031088;28;20682;-65
2021/06/24 04:47:55;;;;;;;1999.90;999.90;;;;;;;24.28;77.27;95999.22;5031038;28;20206;-66
2021/06/24 04:50:24;;;;;;;1999.90;999.90;;;;;;;24.27;76.95;95997.69;5031359;28;20233;-65
2021/06/24 04:52:51;;;;;;;1999.90;999.90;;;;;;;24.26;78.64;95993.53;5031211;28;20198;-65
2021/06/24 04:55:18;;;;;;;1999.90;999.90;;;;;;;24.36;76.95;95996.22;5031096;28;20202;-66
2021/06/24 04:57:45;;;;;;;1999.90;999.90;;;;;;;24.38;77.60;95998.53;5033401;28;20197;-66
2021/06/24 05:00:14;;;;;;;1999.90;999.90;;;;;;;24.39;78.04;96003.47;5030433;28;20233;-66
2021/06/24 05:02:41;;;;;;;1999.90;999.90;;;;;;;24.48;78.29;95995.19;5047967;28;20208;-66
2021/06/24 05:05:10;;;;;;;1999.90;999.90;;;;;;;24.52;77.22;95995.97;5050752;28;20201;-66
2021/06/24 05:07:39;;;;;;;1999.90;999.90;;;;;;;24.47;81.09;95991.00;5050458;28;20197;-65
2021/06/24 05:10:07;;;;;;;1999.90;999.90;;;;;;;24.56;80.26;95999.41;5050126;28;20689;-65
2021/06/24 05:12:34;;;;;;;1999.90;999.90;;;;;;;24.68;79.86;95996.44;5050230;28;20212;-66
2021/06/24 05:15:01;;;;;;;1999.90;999.90;;;;;;;24.88;79.68;96001.50;5050026;28;20201;-64
2021/06/24 05:17:29;;;;;;;1999.90;999.90;;;;;;;24.97;77.30;95994.72;5050171;28;20207;-66
2021/06/24 05:19:58;;;;;;;1999.90;999.90;;;;;;;24.80;77.18;95996.16;5049798;28;20705;-66
2021/06/24 05:22:25;;;;;;;1999.90;999.90;;;;;;;24.80;79.13;96004.13;5049478;28;20945;-66
2021/06/24 05:24:55;;;;;;;1999.90;999.90;;;;;;;24.95;79.74;96004.22;5049727;28;20247;-65
2021/06/24 05:27:22;;;;;;;1999.90;999.90;;;;;;;25.03;79.80;96000.44;5049863;28;20201;-65
2021/06/24 05:29:50;;;;;;;1999.90;999.90;;;;;;;25.15;76.39;96006.22;5049771;28;20201;-65
2021/06/24 05:32:17;;;;;;;1999.90;999.90;;;;;;;25.15;76.25;96002.78;5049745;28;20201;-65
2021/06/24 05:34:44;;;;;;;1999.90;999.90;;;;;;;25.22;77.04;96003.56;5050033;28;20197;-65
2021/06/24 05:37:11;;;;;;;1999.90;999.90;;;;;;;25.29;77.64;96000.16;5049655;28;20672;-66
2021/06/24 05:39:38;;;;;;;1999.90;999.90;;;;;;;25.46;77.63;96006.66;5049696;28;20667;-66
2021/06/24 05:42:07;;;;;;;1999.90;999.90;;;;;;;25.47;77.52;96000.97;5049713;28;20209;-66
2021/06/24 05:44:34;;;;;;;1999.90;999.90;;;;;;;25.47;78.51;95995.66;5049804;28;20204;-66
2021/06/24 05:47:01;;;;;;;1999.90;999.90;;;;;;;25.77;74.95;95999.91;5049818;28;20207;-66
2021/06/24 05:49:28;;;;;;;1999.90;999.90;;;;;;;25.85;75.13;95994.25;5049680;28;20204;-66
2021/06/24 05:51:56;;;;;;;1999.90;999.90;;;;;;;25.88;75.90;96006.78;5049413;28;20204;-66
2021/06/24 05:54:23;;;;;;;1999.90;999.90;;;;;;;25.95;73.56;96006.03;5049226;28;20659;-66
2021/06/24 05:56:50;;;;;;;1999.90;999.90;;;;;;;25.98;73.65;96006.03;5049309;28;20254;-66
2021/06/24 05:59:19;;;;;;;1999.90;999.90;;;;;;;26.03;75.91;96002.22;5049356;28;20215;-66
2021/06/24 06:01:48;;;;;;;1999.90;999.90;;;;;;;26.30;73.98;96010.63;5049203;28;20236;-66
2021/06/24 06:04:15;;;;;;;1999.90;999.90;;;;;;;26.34;74.04;96001.50;5049118;28;20193;-66
2021/06/24 06:06:42;;;;;;;1999.90;999.90;;;;;;;26.44;72.30;96006.06;5049214;28;20665;-66
2021/06/24 06:09:10;;;;;;;1999.90;999.90;;;;;;;26.44;71.73;95999.97;5049021;28;20212;-66
2021/06/24 06:11:37;;;;;;;1999.90;999.90;;;;;;;26.42;74.60;96002.22;5049126;28;20204;-64
2021/06/24 06:14:04;;;;;;;1999.90;999.90;;;;;;;26.48;75.18;95998.81;5048857;28;20205;-64
2021/06/24 06:16:32;;;;;;;1999.90;999.90;;;;;;;26.49;72.15;95992.34;5049110;28;20208;-65
2021/06/24 06:18:59;;;;;;;1999.90;999.90;;;;;;;26.64;73.23;95998.41;5048885;28;20272;-65
2021/06/24 06:21:29;;;;;;;1999.90;999.90;;;;;;;26.72;73.86;95993.81;5048759;28;20274;-65
2021/06/24 06:23:56;;;;;;;1999.90;999.90;;;;;;;26.90;72.86;95994.53;5049137;28;20196;-65
2021/06/24 06:26:24;;;;;;;1999.90;999.90;;;;;;;27.17;70.61;95994.81;5048747;28;20200;-64
2021/06/24 06:28:52;;;;;;;1999.90;999.90;;;;;;;27.30;71.13;95991.31;5048706;28;20201;-65
2021/06/24 06:31:20;;;;;;;1999.90;999.90;;;;;;;27.51;70.39;95985.13;5048695;28;20677;-64
2021/06/24 06:33:49;;;;;;;1999.90;999.90;;;;;;;27.68;70.79;95999.56;5048411;28;20197;-65
2021/06/24 06:36:16;;;;;;;1999.90;999.90;;;;;;;27.21;69.58;95993.66;5048615;28;20197;-64
2021/06/24 06:38:43;;;;;;;1999.90;999.90;;;;;;;27.25;70.06;95993.63;5048798;28;20717;-64
2021/06/24 06:41:10;;;;;;;1999.90;999.90;;;;;;;27.54;69.91;95986.28;5048471;28;20237;-65
2021/06/24 06:43:38;;;;;;;1999.90;999.90;;;;;;;27.83;69.61;95975.03;5048524;28;20219;-64
2021/06/24 06:46:05;;;;;;;1999.90;999.90;;;;;;;28.20;66.11;95978.94;5048623;28;20952;-65
2021/06/24 06:48:32;;;;;;;1999.90;999.90;;;;;;;28.20;64.64;95977.03;5046690;28;20677;-64
2021/06/24 06:51:01;;;;;;;1999.90;999.90;;;;;;;28.20;66.59;95982.38;5030382;28;20248;-64
2021/06/24 06:53:28;;;;;;;1999.90;999.90;;;;;;;28.42;67.00;95982.19;5028694;28;20201;-64
2021/06/24 06:55:55;;;;;;;1999.90;999.90;;;;;;;28.35;67.34;95988.34;5028666;28;20201;-65
2021/06/24 06:58:22;;;;;;;1999.90;999.90;;;;;;;28.46;65.79;95990.94;5039898;28;20630;-64
2021/06/24 07:00:49;;;;;;;1999.90;999.90;;;;;;;28.33;65.15;95990.69;5048311;28;20221;-64
2021/06/24 07:03:17;;;;;;;1999.90;999.90;;;;;;;28.17;67.52;95993.88;5048454;28;20193;-65
2021/06/24 07:05:44;;;;;;;1999.90;999.90;;;;;;;28.55;65.16;95988.53;5048504;28;20193;-65
2021/06/24 07:08:12;;;;;;;1999.90;999.90;;;;;;;28.72;64.22;95984.97;5048878;28;20197;-65
2021/06/24 07:10:40;;;;;;;1999.90;999.90;;;;;;;28.89;68.32;95986.69;5049007;28;20197;-64
2021/06/24 07:13:07;;;;;;;1999.90;999.90;;;;;;;29.05;65.89;95988.78;5048739;28;20204;-64
2021/06/24 07:15:34;;;;;;;1999.90;999.90;;;;;;;29.31;67.78;95984.69;5048406;28;20201;-65
2021/06/24 07:18:01;;;;;;;1999.90;999.90;;;;;;;29.50;65.53;95987.47;5048190;28;20207;-64
2021/06/24 07:20:28;;;;;;;1999.90;999.90;;;;;;;29.73;63.77;95986.78;5048266;28;20705;-65
2021/06/24 07:22:55;;;;;;;1999.90;999.90;;;;;;;29.75;61.91;95987.13;5047591;28;20201;-65
2021/06/24 07:25:24;;;;;;;1999.90;999.90;;;;;;;29.72;63.42;95984.50;5048402;28;20201;-66
2021/06/24 07:27:51;;;;;;;1999.90;999.90;;;;;;;29.86;64.40;95981.63;5048303;28;20242;-66
2021/06/24 07:30:19;;;;;;;1999.90;999.90;;;;;;;29.91;64.35;95986.53;5048532;28;20197;-66
2021/06/24 07:32:47;;;;;;;1999.90;999.90;;;;;;;29.77;62.18;95976.78;5048521;28;20739;-64
2021/06/24 07:35:14;;;;;;;1999.90;999.90;;;;;;;29.90;60.13;95979.66;5048148;28;20251;-65
2021/06/24 07:37:44;;;;;;;1999.90;999.90;;;;;;;30.01;60.97;95980.25;5042761;28;20287;-64
2021/06/24 07:40:13;;;;;;;1999.90;999.90;;;;;;;30.07;64.15;95977.88;5047748;28;20236;-66
2021/06/24 07:42:41;;;;;;;1999.90;999.90;;;;;;;30.29;62.90;95984.38;5048416;28;20204;-66
2021/06/24 07:45:09;;;;;;;1999.90;999.90;;;;;;;30.49;61.25;95977.16;5048269;28;20226;-66
2021/06/24 07:47:36;;;;;;;1999.90;999.90;;;;;;;30.28;61.96;95974.84;5051587;28;20201;-66
2021/06/24 07:50:04;;;;;;;1999.90;999.90;;;;;;;29.83;62.18;95977.84;5051969;28;20262;-66
2021/06/24 07:52:31;;;;;;;1999.90;999.90;;;;;;;30.02;62.94;95979.09;5052003;28;20202;-66
2021/06/24 07:54:58;;;;;;;1999.90;999.90;;;;;;;30.52;63.14;95976.38;5051976;28;20623;-65
2021/06/24 07:57:28;;;;;;;1999.90;999.90;;;;;;;30.74;60.26;95976.72;5052002;28;20278;-66
2021/06/24 07:59:57;;;;;;;1999.90;999.90;;;;;;;31.08;62.17;95968.44;5051608;28;20262;-66
2021/06/24 08:02:24;;;;;;;1999.90;999.90;;;;;;;31.24;59.33;95971.13;5051903;28;20623;-65
2021/06/24 08:04:51;;;;;;;1999.90;999.90;;;;;;;31.39;58.82;95955.47;5051523;28;20255;-66
2021/06/24 08:07:18;;;;;;;1999.90;999.90;;;;;;;31.30;55.59;95961.41;5051511;28;20239;-65
2021/06/24 08:09:45;;;;;;;1999.90;999.90;;;;;;;31.01;57.31;95966.59;5051449;28;20200;-66
2021/06/24 08:12:12;;;;;;;1999.90;999.90;;;;;;;31.39;56.23;95966.97;5051686;28;20201;-66
2021/06/24 08:14:39;;;;;;;1999.90;999.90;;;;;;;31.59;56.19;95961.59;5051628;28;20201;-66
2021/06/24 08:17:08;;;;;;;1999.90;999.90;;;;;;;31.76;55.58;95954.28;5051379;28;20197;-63
2021/06/24 08:19:35;;;;;;;1999.90;999.90;;;;;;;31.90;53.85;95960.09;5051448;28;20228;-64
2021/06/24 08:22:03;;;;;;;1999.90;999.90;;;;;;;31.77;55.87;95961.19;5051074;28;20787;-64
2021/06/24 08:24:30;;;;;;;1999.90;999.90;;;;;;;31.63;54.62;95964.22;5051085;28;20193;-64
2021/06/24 08:26:57;;;;;;;1999.90;999.90;;;;;;;31.93;52.28;95971.97;5051227;28;20197;-65
2021/06/24 08:29:24;;;;;;;1999.90;999.90;;;;;;;31.84;55.37;95979.81;5051150;28;20197;-64
2021/06/24 08:31:51;;;;;;;1999.90;999.90;;;;;;;31.89;55.64;95973.94;5051143;28;20201;-64
2021/06/24 08:34:20;;;;;;;1999.90;999.90;;;;;;;32.03;54.62;95973.63;5050972;28;20262;-64
2021/06/24 08:36:47;;;;;;;1999.90;999.90;;;;;;;32.43;55.87;95974.19;5051359;28;20201;-64
2021/06/24 08:39:14;;;;;;;1999.90;999.90;;;;;;;32.37;53.42;95973.97;5051175;28;20197;-64
2021/06/24 08:41:41;;;;;;;1999.90;999.90;;;;;;;32.43;50.48;95974.94;5051178;28;20213;-65
2021/06/24 08:44:08;;;;;;;1999.90;999.90;;;;;;;32.71;48.37;95978.09;5051154;28;20262;-64
2021/06/24 08:46:35;;;;;;;1999.90;999.90;;;;;;;32.88;46.16;95974.16;5050975;28;20205;-64
2021/06/24 08:49:04;;;;;;;1999.90;999.90;;;;;;;32.97;44.13;95966.22;5050746;28;20204;-64
2021/06/24 08:51:32;;;;;;;1999.90;999.90;;;;;;;33.17;45.69;95955.31;5049724;28;20201;-65
2021/06/24 08:54:01;;;;;;;1999.90;999.90;;;;;;;33.23;46.22;95956.25;5032721;28;20652;-64
2021/06/24 08:56:28;;;;;;;1999.90;999.90;;;;;;;32.80;43.88;95960.16;5031062;28;20332;-64
2021/06/24 08:58:56;;;;;;;1999.90;999.90;;;;;;;32.69;40.87;95956.97;5030862;28;20673;-64
2021/06/24 09:01:48;;;;;;;1999.90;999.90;;;;;;;33.04;40.13;95963.31;5036736;28;20221;-64
2021/06/24 09:04:16;;;;;;;1999.90;999.90;;;;;;;33.36;44.11;95956.28;5050664;28;20201;-63
2021/06/24 09:06:45;;;;;;;1999.90;999.90;;;;;;;33.33;43.69;95962.56;5050771;28;20197;-64
2021/06/24 09:09:24;;;;;;;1999.90;999.90;;;;;;;33.47;43.30;95959.44;5050648;28;20209;-64
2021/06/24 09:12:01;;;;;;;1999.90;999.90;;;;;;;33.61;41.14;95951.66;5050291;28;20185;-63
2021/06/24 09:14:37;;;;;;;1999.90;999.90;;;;;;;33.68;36.73;95950.69;5050412;28;20285;-64
2021/06/24 09:17:05;;;;;;;1999.90;999.90;;;;;;;34.09;37.62;95955.16;5050679;28;20243;-64
2021/06/24 09:19:32;;;;;;;1999.90;999.90;;;;;;;34.07;36.26;95952.91;5050231;28;20643;-64
2021/06/24 09:22:03;;;;;;;1999.90;999.90;;;;;;;34.03;32.67;95954.22;5049980;28;20229;-65
2021/06/24 09:24:33;;;;;;;1999.90;999.90;;;;;;;34.09;35.95;95950.53;5050153;28;20189;-64
2021/06/24 09:27:02;;;;;;;1999.90;999.90;;;;;;;33.89;38.68;95950.03;5049794;28;20197;-64
2021/06/24 09:29:29;;;;;;;1999.90;999.90;;;;;;;34.05;36.44;95949.16;5049743;28;20197;-64
2021/06/24 09:31:57;;;;;;;1999.90;999.90;;;;;;;33.77;40.40;95936.56;5049624;28;20197;-64
2021/06/24 09:34:26;;;;;;;1999.90;999.90;;;;;;;33.71;40.37;95933.66;5050086;28;20247;-66
2021/06/24 09:36:59;;;;;;;1999.90;999.90;;;;;;;33.81;38.74;95945.31;5049981;28;20189;-66
2021/06/24 09:39:34;;;;;;;1999.90;999.90;;;;;;;33.77;38.74;95940.03;5049988;28;20189;-66
2021/06/24 09:42:07;;;;;;;1999.90;999.90;;;;;;;33.56;39.45;95951.44;5050010;28;20341;-66
2021/06/24 09:44:36;;;;;;;1999.90;999.90;;;;;;;33.83;38.29;95949.06;5049764;28;20954;-66
2021/06/24 09:47:15;;;;;;;1999.90;999.90;;;;;;;33.93;38.36;95945.28;5049576;28;20205;-66
2021/06/24 09:49:42;;;;;;;1999.90;999.90;;;;;;;34.29;36.85;95947.59;5049609;28;20251;-66
2021/06/24 09:52:10;;;;;;;1999.90;999.90;;;;;;;34.46;35.70;95940.84;5049537;28;20193;-64
2021/06/24 09:54:43;;;;;;;1999.90;999.90;;;;;;;34.76;36.02;95942.13;5049637;28;20795;-66
2021/06/24 09:57:23;;;;;;;1999.90;999.90;;;;;;;34.84;36.50;95939.91;5049825;28;20197;-66
2021/06/24 09:59:50;;;;;;;1999.90;999.90;;;;;;;34.58;34.75;95941.97;5049374;28;20224;-66
2021/06/24 10:02:20;;;;;;;1999.90;999.90;;;;;;;34.59;33.76;95921.88;5049218;28;20256;-66
2021/06/24 10:04:48;;;;;;;1999.90;999.90;;;;;;;34.24;37.82;95920.41;5049573;28;20258;-66
2021/06/24 10:07:18;;;;;;;1999.90;999.90;;;;;;;34.32;38.28;95918.97;5049204;28;20201;-66
2021/06/24 10:09:47;;;;;;;1999.90;999.90;;;;;;;34.53;38.05;95918.22;5049008;28;20205;-66
2021/06/24 10:12:17;;;;;;;1999.90;999.90;;;;;;;34.81;38.86;95919.19;5049493;28;20197;-67
2021/06/24 10:14:45;;;;;;;1999.90;999.90;;;;;;;35.15;35.76;95910.97;5049870;28;20197;-67
2021/06/24 10:17:12;;;;;;;1999.90;999.90;;;;;;;35.23;38.52;95914.19;5049413;28;20201;-65
2021/06/24 10:19:41;;;;;;;1999.90;999.90;;;;;;;35.33;38.66;95913.03;5049505;28;20637;-64
2021/06/24 10:22:13;;;;;;;1999.90;999.90;;;;;;;34.98;37.15;95910.44;5048947;28;20217;-64
2021/06/24 10:24:47;;;;;;;1999.90;999.90;;;;;;;35.11;36.67;95904.19;5048930;28;20737;-67
2021/06/24 10:27:16;;;;;;;1999.90;999.90;;;;;;;35.30;36.56;95903.09;5049045;28;20186;-65
2021/06/24 10:29:49;;;;;;;1999.90;999.90;;;;;;;35.30;39.00;95897.69;5049125;28;20676;-65
2021/06/24 10:32:24;;;;;;;1999.90;999.90;;;;;;;35.33;38.52;95894.09;5049146;28;20740;-64
2021/06/24 10:34:52;;;;;;;1999.90;999.90;;;;;;;35.27;40.15;95898.59;5049080;28;20232;-65
2021/06/24 10:37:22;;;;;;;1999.90;999.90;;;;;;;35.57;40.35;95899.75;5048894;28;20212;-65
2021/06/24 10:39:51;;;;;;;1999.90;999.90;;;;;;;35.60;37.99;95891.50;5048543;28;20332;-65
2021/06/24 10:42:21;;;;;;;1999.90;999.90;;;;;;;35.78;35.59;95894.25;5048881;28;20217;-65
2021/06/24 10:44:52;;;;;;;1999.90;999.90;;;;;;;35.79;35.49;95884.94;5048700;28;20204;-65
2021/06/24 10:47:30;;;;;;;1999.90;999.90;;;;;;;35.72;39.98;95885.22;5049147;28;20185;-65
2021/06/24 10:50:41;;;;;;;1999.90;999.90;;;;;;;35.80;38.83;95889.16;5048803;28;20676;-65
2021/06/24 10:53:42;;;;;;;1999.90;999.90;;;;;;;35.91;36.92;95887.97;5037278;28;20269;-64
2021/06/24 10:56:26;;;;;;;1999.90;999.90;;;;;;;35.90;37.50;95889.91;5029042;28;20181;-64
2021/06/24 10:58:56;;;;;;;1999.90;999.90;;;;;;;36.05;35.24;95884.66;5028833;28;20210;-64
2021/06/24 11:01:43;;;;;;;1999.90;999.90;;;;;;;36.01;35.30;95878.66;5034955;28;20225;-67
2021/06/24 11:04:26;;;;;;;1999.90;999.90;;;;;;;36.06;36.88;95880.75;5048772;28;20270;-68
2021/06/24 11:06:55;;;;;;;1999.90;999.90;;;;;;;36.38;37.00;95874.00;5048787;28;20223;-66
2021/06/24 11:09:22;;;;;;;1999.90;999.90;;;;;;;36.29;34.13;95882.88;5048455;28;20209;-66
2021/06/24 11:11:49;;;;;;;1999.90;999.90;;;;;;;36.42;36.76;95880.75;5048568;28;20201;-66
2021/06/24 11:14:58;;;;;;;1999.90;999.90;;;;;;;36.45;37.64;95876.41;5048297;28;20197;-66
2021/06/24 11:17:46;;;;;;;1999.90;999.90;;;;;;;36.45;35.02;95868.28;5048380;28;20204;-66
2021/06/24 11:20:19;;;;;;;1999.90;999.90;;;;;;;36.38;34.09;95869.34;5048756;28;20205;-67
2021/06/24 11:22:48;;;;;;;1999.90;999.90;;;;;;;36.46;32.71;95864.38;5052218;28;20677;-66
2021/06/24 11:25:15;;;;;;;1999.90;999.90;;;;;;;36.29;34.35;95872.06;5052415;28;20197;-67
2021/06/24 11:27:42;;;;;;;1999.90;999.90;;;;;;;36.33;35.63;95869.19;5052528;28;20289;-66
2021/06/24 11:30:13;;;;;;;1999.90;999.90;;;;;;;36.31;37.83;95866.19;5052282;28;20205;-66
2021/06/24 11:32:44;;;;;;;1999.90;999.90;;;;;;;36.39;38.71;95865.44;5052492;28;20857;-67
2021/06/24 11:35:30;;;;;;;1999.90;999.90;;;;;;;36.52;37.96;95868.72;5052249;28;20193;-67
2021/06/24 11:38:02;;;;;;;1999.90;999.90;;;;;;;36.31;34.04;95872.38;5052124;28;20282;-66
2021/06/24 11:40:29;;;;;;;1999.90;999.90;;;;;;;36.28;35.40;95864.38;5051904;28;20236;-67
2021/06/24 11:42:57;;;;;;;1999.90;999.90;;;;;;;36.59;33.04;95862.25;5052129;28;20228;-67
2021/06/24 11:45:26;;;;;;;1999.90;999.90;;;;;;;36.55;35.47;95857.00;5052336;28;20291;-66